createdAt,value
2022-10-01T00:01:43.116Z,5.32
2022-10-01T00:04:09.548Z,6.22
2022-10-01T00:06:36.001Z,6.07
2022-10-01T00:09:02.464Z,4.45
2022-10-01T00:11:30.188Z,3.70
2022-10-01T00:13:57.529Z,3.05
2022-10-01T00:16:26.399Z,5.18
2022-10-01T00:18:54.231Z,3.30
2022-10-01T00:21:24.046Z,4.07
2022-10-01T00:23:57.632Z,5.05
2022-10-01T00:26:27.248Z,2.75
2022-10-01T00:28:58.994Z,2.92
2022-10-01T00:31:26.593Z,3.63
2022-10-01T00:33:58.291Z,4.40
2022-10-01T00:36:26.444Z,5.75
2022-10-01T00:38:53.136Z,7.20
2022-10-01T00:41:20.155Z,6.03
2022-10-01T00:43:50.267Z,5.05
2022-10-01T00:46:32.930Z,3.38
2022-10-01T00:49:15.100Z,3.13
2022-10-01T00:51:45.938Z,1.65
2022-10-01T00:54:15.736Z,4.53
2022-10-01T00:56:43.199Z,5.40
2022-10-01T00:59:10.974Z,4.35
2022-10-01T01:01:38.998Z,4.63
2022-10-01T01:04:16.224Z,3.08
2022-10-01T01:06:55.842Z,5.28
2022-10-01T01:09:27.491Z,4.38
2022-10-01T01:12:37.814Z,4.50
2022-10-01T01:15:18.667Z,3.72
2022-10-01T01:18:13.124Z,6.18
2022-10-01T01:21:00.016Z,3.67
2022-10-01T01:23:38.439Z,5.95
2022-10-01T01:26:23.030Z,4.90
2022-10-01T01:28:53.472Z,5.47
2022-10-01T01:31:29.546Z,4.25
2022-10-01T01:33:57.865Z,4.13
2022-10-01T01:36:32.201Z,4.55
2022-10-01T01:39:02.104Z,4.97
2022-10-01T01:41:35.127Z,5.15
2022-10-01T01:44:03.859Z,4.65
2022-10-01T01:46:33.923Z,4.55
2022-10-01T01:49:02.161Z,5.30
2022-10-01T01:51:45.641Z,5.55
2022-10-01T01:54:12.443Z,2.13
2022-10-01T01:56:38.926Z,3.90
2022-10-01T01:59:06.239Z,4.45
2022-10-01T02:01:35.053Z,4.28
2022-10-01T02:04:05.759Z,3.00
2022-10-01T02:06:50.502Z,6.15
2022-10-01T02:09:30.436Z,4.10
2022-10-01T02:12:18.123Z,6.10
2022-10-01T02:14:55.000Z,3.47
2022-10-01T02:17:40.508Z,6.85
2022-10-01T02:20:11.395Z,5.70
2022-10-01T02:22:43.765Z,6.45
2022-10-01T02:25:11.254Z,6.47
2022-10-01T02:27:52.401Z,7.60
2022-10-01T02:30:19.018Z,4.35
2022-10-01T02:32:47.536Z,4.22
2022-10-01T02:35:16.049Z,6.32
2022-10-01T02:37:44.985Z,4.40
2022-10-01T02:40:15.974Z,8.73
2022-10-01T02:42:46.251Z,7.63
2022-10-01T02:45:14.208Z,5.60
2022-10-01T02:47:43.614Z,6.47
2022-10-01T02:50:10.904Z,10.70
2022-10-01T02:52:44.271Z,14.02
2022-10-01T02:55:14.039Z,5.80
2022-10-01T02:57:42.038Z,6.05
2022-10-01T03:00:11.319Z,8.82
2022-10-01T03:02:38.097Z,6.80
2022-10-01T03:05:05.492Z,7.80
2022-10-01T03:07:34.566Z,7.05
2022-10-01T03:10:04.861Z,7.43
2022-10-01T03:12:31.343Z,6.30
2022-10-01T03:14:57.762Z,7.90
2022-10-01T03:17:24.183Z,9.05
2022-10-01T03:19:50.616Z,6.18
2022-10-01T03:22:23.833Z,8.35
2022-10-01T03:24:53.849Z,2.88
2022-10-01T03:27:21.315Z,9.85
2022-10-01T03:29:48.205Z,10.75
2022-10-01T03:32:15.059Z,7.38
2022-10-01T03:34:41.452Z,8.70
2022-10-01T03:37:08.804Z,10.02
2022-10-01T03:39:36.040Z,9.55
2022-10-01T03:42:02.916Z,7.97
2022-10-01T03:44:29.523Z,8.15
2022-10-01T03:46:55.953Z,7.28
2022-10-01T03:49:22.397Z,9.88
2022-10-01T03:51:48.864Z,6.50
2022-10-01T03:54:15.339Z,7.47
2022-10-01T03:56:42.622Z,12.52
2022-10-01T03:59:10.894Z,8.57
2022-10-01T04:01:38.877Z,10.55
2022-10-01T04:04:06.208Z,8.18
2022-10-01T04:06:33.122Z,13.00
2022-10-01T04:08:59.538Z,11.90
2022-10-01T04:11:26.065Z,9.93
2022-10-01T04:13:55.223Z,11.48
2022-10-01T04:16:21.705Z,8.38
2022-10-01T04:18:48.185Z,7.50
2022-10-01T04:21:15.523Z,8.77
2022-10-01T04:23:42.214Z,12.65
2022-10-01T04:26:09.268Z,10.23
2022-10-01T04:28:36.347Z,8.32
2022-10-01T04:31:21.535Z,11.52
2022-10-01T04:36:14.667Z,13.95
2022-10-01T04:38:41.146Z,6.65
2022-10-01T04:41:07.544Z,7.20
2022-10-01T04:43:34.181Z,11.20
2022-10-01T04:46:00.583Z,7.15
2022-10-01T04:48:27.414Z,11.20
2022-10-01T04:50:56.101Z,8.43
2022-10-01T04:53:22.723Z,10.63
2022-10-01T04:55:49.140Z,12.93
2022-10-01T04:58:16.145Z,9.57
2022-10-01T05:00:43.001Z,11.18
2022-10-01T05:03:09.834Z,12.68
2022-10-01T05:05:37.257Z,9.05
2022-10-01T05:08:04.043Z,8.20
2022-10-01T05:10:31.339Z,7.03
2022-10-01T05:13:01.202Z,13.45
2022-10-01T05:15:28.596Z,14.63
2022-10-01T05:17:56.012Z,9.15
2022-10-01T05:20:26.291Z,8.48
2022-10-01T05:22:54.192Z,11.93
2022-10-01T05:25:20.836Z,12.13
2022-10-01T05:27:47.354Z,11.73
2022-10-01T05:30:18.607Z,7.10
2022-10-01T05:32:54.115Z,11.10
2022-10-01T05:35:20.535Z,11.63
2022-10-01T05:37:47.619Z,10.93
2022-10-01T05:40:14.111Z,8.05
2022-10-01T05:42:46.019Z,7.65
2022-10-01T05:45:12.653Z,10.32
2022-10-01T05:47:43.920Z,11.90
2022-10-01T05:50:10.545Z,10.32
2022-10-01T05:52:37.119Z,10.25
2022-10-01T05:55:03.709Z,12.15
2022-10-01T05:57:31.442Z,9.90
2022-10-01T05:59:58.339Z,6.97
2022-10-01T06:02:25.237Z,10.13
2022-10-01T06:04:51.975Z,5.95
2022-10-01T06:07:18.771Z,9.05
2022-10-01T06:09:45.202Z,13.35
2022-10-01T06:12:12.940Z,11.77
2022-10-01T06:14:40.939Z,13.15
2022-10-01T06:17:07.349Z,11.02
2022-10-01T06:19:33.771Z,13.80
2022-10-01T06:22:00.186Z,14.55
2022-10-01T06:24:26.750Z,17.38
2022-10-01T06:26:53.360Z,13.07
2022-10-01T06:29:19.809Z,19.05
2022-10-01T06:31:46.281Z,16.58
2022-10-01T06:34:12.810Z,16.25
2022-10-01T06:36:39.633Z,15.23
2022-10-01T06:39:06.255Z,16.45
2022-10-01T06:41:34.526Z,14.40
2022-10-01T06:44:02.034Z,18.48
2022-10-01T06:46:28.949Z,12.55
2022-10-01T06:48:55.405Z,15.13
2022-10-01T06:51:41.754Z,14.48
2022-10-01T06:54:08.308Z,15.55
2022-10-01T06:56:35.398Z,17.08
2022-10-01T06:59:02.464Z,14.30
2022-10-01T07:01:28.995Z,15.10
2022-10-01T07:03:55.713Z,12.40
2022-10-01T07:06:23.333Z,17.08
2022-10-01T07:08:50.325Z,14.15
2022-10-01T07:11:16.777Z,16.00
2022-10-01T07:13:43.143Z,10.15
2022-10-01T07:16:10.249Z,15.13
2022-10-01T07:18:37.116Z,13.57
2022-10-01T07:21:03.551Z,17.13
2022-10-01T07:23:30.431Z,15.73
2022-10-01T07:25:56.838Z,21.77
2022-10-01T07:28:25.644Z,15.98
2022-10-01T07:31:02.659Z,24.42
2022-10-01T07:33:29.413Z,19.15
2022-10-01T07:35:56.161Z,14.85
2022-10-01T07:38:22.589Z,18.08
2022-10-01T07:40:53.070Z,11.57
2022-10-01T07:43:19.660Z,12.40
2022-10-01T07:45:50.201Z,12.48
2022-10-01T07:48:16.724Z,14.23
2022-10-01T07:50:45.228Z,13.05
2022-10-01T07:53:11.875Z,13.70
2022-10-01T07:55:38.929Z,15.07
2022-10-01T07:58:05.479Z,13.52
2022-10-01T08:00:33.628Z,14.00
2022-10-01T08:03:00.180Z,10.85
2022-10-01T08:05:29.119Z,13.23
2022-10-01T08:08:07.078Z,14.88
2022-10-01T08:10:37.553Z,15.30
2022-10-01T08:13:14.921Z,12.75
2022-10-01T08:15:46.511Z,15.90
2022-10-01T08:18:13.527Z,15.45
2022-10-01T08:20:40.334Z,12.02
2022-10-01T08:23:10.284Z,12.32
2022-10-01T08:25:37.192Z,16.55
2022-10-01T08:28:04.401Z,17.05
2022-10-01T08:30:31.312Z,15.73
2022-10-01T08:32:59.100Z,15.55
2022-10-01T08:35:26.561Z,14.75
2022-10-01T08:37:53.193Z,17.77
2022-10-01T08:40:21.299Z,16.92
2022-10-01T08:42:54.769Z,19.13
2022-10-01T08:45:29.909Z,17.15
2022-10-01T08:48:09.176Z,18.23
2022-10-01T08:50:50.503Z,16.75
2022-10-01T08:53:28.697Z,16.65
2022-10-01T08:55:55.722Z,18.58
2022-10-01T08:58:27.084Z,22.85
2022-10-01T09:00:56.641Z,20.23
2022-10-01T09:03:23.203Z,19.00
2022-10-01T09:06:08.919Z,18.73
2022-10-01T09:08:45.346Z,18.20
2022-10-01T09:11:27.341Z,19.42
2022-10-01T09:13:59.740Z,16.88
2022-10-01T09:19:10.633Z,17.77
2022-10-01T09:22:02.057Z,21.15
2022-10-01T09:24:50.976Z,19.25
2022-10-01T09:27:19.669Z,19.05
2022-10-01T09:29:50.956Z,18.13
2022-10-01T09:32:23.293Z,20.15
2022-10-01T09:37:30.082Z,16.25
2022-10-01T09:40:21.974Z,17.42
2022-10-01T09:42:48.531Z,18.58
2022-10-01T09:45:15.993Z,16.77
2022-10-01T09:47:45.966Z,18.88
2022-10-01T09:50:16.063Z,17.90
2022-10-01T09:52:45.164Z,17.00
2022-10-01T09:55:33.736Z,27.58
2022-10-01T09:58:05.006Z,21.52
2022-10-01T10:00:31.919Z,25.15
2022-10-01T10:02:58.593Z,22.98
2022-10-01T10:05:27.806Z,19.42
2022-10-01T10:07:57.921Z,23.50
2022-10-01T10:10:28.457Z,20.50
2022-10-01T10:13:01.292Z,22.05
2022-10-01T10:15:28.294Z,20.92
2022-10-01T10:17:56.216Z,21.33
2022-10-01T10:20:28.516Z,19.92
2022-10-01T10:25:24.131Z,23.48
2022-10-01T10:27:55.601Z,19.80
2022-10-01T10:30:24.393Z,16.85
2022-10-01T10:32:52.297Z,17.20
2022-10-01T10:35:25.660Z,14.27
2022-10-01T10:37:59.435Z,17.05
2022-10-01T10:40:29.850Z,15.98
2022-10-01T10:42:57.747Z,18.27
2022-10-01T10:45:43.858Z,17.38
2022-10-01T10:48:16.977Z,14.43
2022-10-01T10:50:44.972Z,14.57
2022-10-01T10:53:22.645Z,13.63
2022-10-01T10:55:56.186Z,15.23
2022-10-01T10:58:26.006Z,13.68
2022-10-01T11:00:53.548Z,13.35
2022-10-01T11:03:26.595Z,12.15
2022-10-01T11:05:56.344Z,15.88
2022-10-01T11:08:26.034Z,16.33
2022-10-01T11:11:13.973Z,12.95
2022-10-01T11:13:59.691Z,12.65
2022-10-01T11:16:32.818Z,13.43
2022-10-01T11:19:12.109Z,15.93
2022-10-01T11:21:56.033Z,16.88
2022-10-01T11:24:52.903Z,17.23
2022-10-01T11:27:36.273Z,15.60
2022-10-01T11:30:18.646Z,16.70
2022-10-01T11:33:06.959Z,12.38
2022-10-01T11:35:34.355Z,11.10
2022-10-01T11:38:10.698Z,11.38
2022-10-01T11:40:42.188Z,13.77
2022-10-01T11:43:28.737Z,11.57
2022-10-01T11:46:10.011Z,12.00
2022-10-01T11:48:51.041Z,15.93
2022-10-01T11:51:24.055Z,13.10
2022-10-01T11:53:54.752Z,12.18
2022-10-01T11:56:45.380Z,12.00
2022-10-01T11:59:29.542Z,13.85
2022-10-01T12:02:02.915Z,15.23
2022-10-01T12:04:32.161Z,12.27
2022-10-01T12:07:12.166Z,12.20
2022-10-01T12:09:58.087Z,10.93
2022-10-01T12:12:31.628Z,12.10
2022-10-01T12:15:14.494Z,13.55
2022-10-01T12:17:52.800Z,11.65
2022-10-01T12:20:38.495Z,8.80
2022-10-01T12:23:07.793Z,8.10
2022-10-01T12:26:04.338Z,8.02
2022-10-01T12:28:40.925Z,8.52
2022-10-01T12:31:15.096Z,7.03
2022-10-01T12:33:51.181Z,6.80
2022-10-01T12:36:31.254Z,9.50
2022-10-01T12:39:14.980Z,6.10
2022-10-01T12:42:13.274Z,7.80
2022-10-01T12:44:50.315Z,7.40
2022-10-01T12:47:38.449Z,6.97
2022-10-01T12:50:04.789Z,7.80
2022-10-01T12:52:43.114Z,10.20
2022-10-01T12:55:42.148Z,11.93
2022-10-01T12:58:33.610Z,10.45
2022-10-01T13:01:02.839Z,8.68
2022-10-01T13:04:08.014Z,7.45
2022-10-01T13:06:40.447Z,8.02
2022-10-01T13:09:15.663Z,7.25
2022-10-01T13:11:54.335Z,7.03
2022-10-01T13:14:21.071Z,6.70
2022-10-01T13:16:47.403Z,6.75
2022-10-01T13:19:31.861Z,6.25
2022-10-01T13:22:23.369Z,4.88
2022-10-01T13:25:06.409Z,6.90
2022-10-01T13:27:44.982Z,6.63
2022-10-01T13:30:21.603Z,5.65
2022-10-01T13:32:53.694Z,6.45
2022-10-01T13:38:17.329Z,4.10
2022-10-01T13:40:44.261Z,4.43
2022-10-01T13:43:19.419Z,3.83
2022-10-01T13:45:47.847Z,3.80
2022-10-01T13:48:23.557Z,4.03
2022-10-01T13:50:56.341Z,4.68
2022-10-01T13:53:25.391Z,4.20
2022-10-01T13:55:53.798Z,4.10
2022-10-01T13:58:29.449Z,3.15
2022-10-01T14:00:58.534Z,5.68
2022-10-01T14:03:52.867Z,5.50
2022-10-01T14:06:26.096Z,5.28
2022-10-01T14:09:00.461Z,5.25
2022-10-01T14:11:48.059Z,3.75
2022-10-01T14:14:50.794Z,3.13
2022-10-01T14:17:23.230Z,4.10
2022-10-01T14:19:50.840Z,4.53
2022-10-01T14:22:55.379Z,4.32
2022-10-01T14:25:24.483Z,4.38
2022-10-01T14:28:00.967Z,4.07
2022-10-01T14:31:05.986Z,2.65
2022-10-01T14:33:42.122Z,4.50
2022-10-01T14:36:28.917Z,2.85
2022-10-01T14:39:15.903Z,2.80
2022-10-01T14:41:42.863Z,3.25
2022-10-01T14:44:28.006Z,3.50
2022-10-01T14:46:56.576Z,2.60
2022-10-01T14:49:24.514Z,4.03
2022-10-01T14:51:56.687Z,4.80
2022-10-01T14:56:49.793Z,2.75
2022-10-01T14:59:43.002Z,2.58
2022-10-01T15:02:20.944Z,1.55
2022-10-01T15:04:50.597Z,2.70
2022-10-01T15:07:18.009Z,3.88
2022-10-01T15:09:45.588Z,4.03
2022-10-01T15:12:13.624Z,2.25
2022-10-01T15:14:40.831Z,1.58
2022-10-01T15:17:10.337Z,1.42
2022-10-01T15:19:42.983Z,1.33
2022-10-01T15:22:11.957Z,2.10
2022-10-01T15:24:42.070Z,1.50
2022-10-01T15:27:10.086Z,2.92
2022-10-01T15:29:37.862Z,2.92
2022-10-01T15:32:06.186Z,1.58
2022-10-01T15:34:33.150Z,1.27
2022-10-01T15:37:00.085Z,2.58
2022-10-01T15:39:33.369Z,3.13
2022-10-01T15:42:03.346Z,1.48
2022-10-01T15:44:42.745Z,5.32
2022-10-01T15:47:34.761Z,1.13
2022-10-01T15:50:05.816Z,1.42
2022-10-01T15:52:51.529Z,1.83
2022-10-01T15:55:21.665Z,1.02
2022-10-01T15:57:56.784Z,1.30
2022-10-01T16:00:26.131Z,1.10
2022-10-01T16:02:52.725Z,1.20
2022-10-01T16:05:23.286Z,2.97
2022-10-01T16:07:54.418Z,4.07
2022-10-01T16:10:26.703Z,1.38
2022-10-01T16:12:53.202Z,2.65
2022-10-01T16:15:37.771Z,4.95
2022-10-01T16:18:22.538Z,2.95
2022-10-01T16:23:35.452Z,2.75
2022-10-01T16:26:07.359Z,2.60
2022-10-01T16:28:34.991Z,3.55
2022-10-01T16:31:05.825Z,2.60
2022-10-01T16:33:32.373Z,2.92
2022-10-01T16:36:10.459Z,2.83
2022-10-01T16:38:37.107Z,2.38
2022-10-01T16:41:05.591Z,2.60
2022-10-01T16:43:32.351Z,2.40
2022-10-01T16:45:59.282Z,4.10
2022-10-01T16:48:26.133Z,2.85
2022-10-01T16:50:58.974Z,3.97
2022-10-01T16:53:26.695Z,5.30
2022-10-01T16:55:54.775Z,2.95
2022-10-01T16:58:21.768Z,3.38
2022-10-01T17:00:48.268Z,5.55
2022-10-01T17:03:17.697Z,4.05
2022-10-01T17:05:45.155Z,4.53
2022-10-01T17:08:12.142Z,3.25
2022-10-01T17:10:45.150Z,3.60
2022-10-01T17:13:12.667Z,3.78
2022-10-01T17:15:39.271Z,3.80
2022-10-01T17:18:05.808Z,5.60
2022-10-01T17:20:33.754Z,4.55
2022-10-01T17:23:00.539Z,3.28
2022-10-01T17:25:32.126Z,3.28
2022-10-01T17:27:59.640Z,5.05
2022-10-01T17:30:29.091Z,6.50
2022-10-01T17:32:56.827Z,4.30
2022-10-01T17:35:23.355Z,4.22
2022-10-01T17:37:49.753Z,5.93
2022-10-01T17:40:16.192Z,4.57
2022-10-01T17:42:43.872Z,4.38
2022-10-01T17:45:12.597Z,3.53
2022-10-01T17:47:43.868Z,4.63
2022-10-01T17:50:10.608Z,5.63
2022-10-01T17:52:36.993Z,6.68
2022-10-01T17:55:04.176Z,6.03
2022-10-01T17:57:30.687Z,7.50
2022-10-01T17:59:57.175Z,5.72
2022-10-01T18:02:41.152Z,6.72
2022-10-01T18:05:09.837Z,3.30
2022-10-01T18:07:37.499Z,5.05
2022-10-01T18:10:09.484Z,5.55
2022-10-01T18:12:35.896Z,2.65
2022-10-01T18:15:02.423Z,6.13
2022-10-01T18:17:29.176Z,7.47
2022-10-01T18:19:57.191Z,6.22
2022-10-01T18:22:24.115Z,4.57
2022-10-01T18:24:50.691Z,10.68
2022-10-01T18:27:17.170Z,8.18
2022-10-01T18:29:43.621Z,6.53
2022-10-01T18:32:12.910Z,5.50
2022-10-01T18:34:45.174Z,11.40
2022-10-01T18:37:37.740Z,8.98
2022-10-01T18:40:20.003Z,5.03
2022-10-01T18:43:01.631Z,5.38
2022-10-01T18:45:59.641Z,4.45
2022-10-01T18:48:41.379Z,5.40
2022-10-01T18:51:51.843Z,5.13
2022-10-01T18:54:27.072Z,5.68
2022-10-01T18:57:15.342Z,4.93
2022-10-01T19:00:00.524Z,4.32
2022-10-01T19:02:50.353Z,6.85
2022-10-01T19:05:30.638Z,4.35
2022-10-01T19:08:29.511Z,5.18
2022-10-01T19:10:56.005Z,5.10
2022-10-01T19:13:56.925Z,5.38
2022-10-01T19:16:36.172Z,3.88
2022-10-01T19:19:21.540Z,4.35
2022-10-01T19:21:58.408Z,7.60
2022-10-01T19:24:45.565Z,4.70
2022-10-01T19:27:27.022Z,4.53
2022-10-01T19:30:08.699Z,5.47
2022-10-01T19:32:46.295Z,7.97
2022-10-01T19:35:25.259Z,5.20
2022-10-01T19:37:55.425Z,5.55
2022-10-01T19:40:33.529Z,5.70
2022-10-01T19:43:18.532Z,6.38
2022-10-01T19:48:48.969Z,9.30
2022-10-01T19:51:20.083Z,7.00
2022-10-01T19:53:59.983Z,15.30
2022-10-01T19:56:35.836Z,7.00
2022-10-01T19:59:12.288Z,4.68
2022-10-01T20:01:48.338Z,5.78
2022-10-01T20:04:25.334Z,3.45
2022-10-01T20:07:00.972Z,4.65
2022-10-01T20:09:30.877Z,11.55
2022-10-01T20:12:23.020Z,4.20
2022-10-01T20:15:20.975Z,5.90
2022-10-01T20:18:13.155Z,7.32
2022-10-01T20:21:04.569Z,6.50
2022-10-01T20:26:20.440Z,5.18
2022-10-01T20:29:10.509Z,4.50
2022-10-01T20:32:03.318Z,4.57
2022-10-01T20:34:36.145Z,8.52
2022-10-01T20:37:23.575Z,5.50
2022-10-01T20:40:10.904Z,5.65
2022-10-01T20:42:39.664Z,5.30
2022-10-01T20:45:15.120Z,6.05
2022-10-01T20:47:49.709Z,4.53
2022-10-01T20:50:22.462Z,5.47
2022-10-01T20:53:15.224Z,6.68
2022-10-01T20:55:47.787Z,6.00
2022-10-01T20:58:22.001Z,3.25
2022-10-01T21:00:49.639Z,3.67
2022-10-01T21:03:22.275Z,3.65
2022-10-01T21:05:56.640Z,8.32
2022-10-01T21:08:37.508Z,5.43
2022-10-01T21:11:09.623Z,5.70
2022-10-01T21:13:42.454Z,5.90
2022-10-01T21:16:24.250Z,6.20
2022-10-01T21:19:02.866Z,4.57
2022-10-01T21:21:41.939Z,6.40
2022-10-01T21:24:31.198Z,3.15
2022-10-01T21:27:45.502Z,7.70
2022-10-01T21:30:26.284Z,7.78
2022-10-01T21:33:15.395Z,4.50
2022-10-01T21:36:03.402Z,3.53
2022-10-01T21:38:45.532Z,4.68
2022-10-01T21:41:32.014Z,7.15
2022-10-01T21:44:29.081Z,5.40
2022-10-01T21:47:01.434Z,5.72
2022-10-01T21:49:52.998Z,5.13
2022-10-01T21:52:43.412Z,5.15
2022-10-01T21:55:41.336Z,5.93
2022-10-01T21:58:07.803Z,7.28
2022-10-01T22:00:34.270Z,3.67
2022-10-01T22:03:25.128Z,5.38
2022-10-01T22:06:12.012Z,5.13
2022-10-01T22:09:04.592Z,6.15
2022-10-01T22:11:36.445Z,5.70
2022-10-01T22:14:12.813Z,5.78
2022-10-01T22:16:56.115Z,5.25
2022-10-01T22:19:28.182Z,5.40
2022-10-01T22:22:02.006Z,5.57
2022-10-01T22:24:51.278Z,5.43
2022-10-01T22:27:26.323Z,5.80
2022-10-01T22:29:59.508Z,4.88
2022-10-01T22:32:29.218Z,6.43
2022-10-01T22:35:01.410Z,5.93
2022-10-01T22:37:32.115Z,3.17
2022-10-01T22:40:03.971Z,6.22
2022-10-01T22:42:36.161Z,6.78
2022-10-01T22:45:13.792Z,7.97
2022-10-01T22:48:03.322Z,6.00
2022-10-01T22:50:47.782Z,5.07
2022-10-01T22:53:39.215Z,8.85
2022-10-01T22:56:06.638Z,3.85
2022-10-01T22:58:55.859Z,8.85
2022-10-01T23:01:46.845Z,6.35
2022-10-01T23:04:25.530Z,8.60
2022-10-01T23:07:29.467Z,7.28
2022-10-01T23:10:16.801Z,9.38
2022-10-01T23:12:54.261Z,4.35
2022-10-01T23:15:43.225Z,6.90
2022-10-01T23:18:37.322Z,5.38
2022-10-01T23:21:13.074Z,8.15
2022-10-01T23:23:40.817Z,7.70
2022-10-01T23:26:22.546Z,4.80
2022-10-01T23:29:15.274Z,7.30
2022-10-01T23:31:56.968Z,9.13
2022-10-01T23:34:59.335Z,8.68
2022-10-01T23:37:37.891Z,10.80
2022-10-01T23:40:08.808Z,6.82
2022-10-01T23:43:02.755Z,10.50
2022-10-01T23:45:48.721Z,11.80
2022-10-01T23:48:22.648Z,9.25
2022-10-01T23:51:03.202Z,8.68
2022-10-01T23:53:45.737Z,5.15
2022-10-01T23:56:35.868Z,8.40
2022-10-01T23:59:13.161Z,5.32
